Time;durP1;ratioP1;P1;durP2;ratioP2;P2;SDS_P1;SDS_P2;PMS_P1;PMS_P2;Temp;Humidity;BMP_temperature;BMP_pressure;BME280_temperature;BME280_humidity;BME280_pressure;Samples;Min_cycle;Max_cycle;Signal;HPM_P1;HPM_P2
2021/12/21 00:00:39;;;;;;;10.55;4.00;;;10.30;94.90;;;;;;5085380;28;20040;-60
2021/12/21 00:03:07;;;;;;;8.00;5.05;;;10.30;94.90;;;;;;5086426;28;20502;-61
2021/12/21 00:05:36;;;;;;;8.73;4.22;;;10.30;94.80;;;;;;5114274;28;20048;-61
2021/12/21 00:08:10;;;;;;;5.97;4.45;;;10.30;94.80;;;;;;5107110;28;20047;-61
2021/12/21 00:10:43;;;;;;;5.60;3.60;;;10.20;94.80;;;;;;5106451;28;20101;-61
2021/12/21 00:16:14;;;;;;;6.55;4.18;;;10.20;94.70;;;;;;5103645;28;20036;-61
2021/12/21 00:26:11;;;;;;;6.75;4.15;;;10.10;94.70;;;;;;5105413;28;20047;-61
2021/12/21 00:29:14;;;;;;;6.53;3.58;;;10.10;94.80;;;;;;5101627;28;20122;-63
2021/12/21 00:31:36;;;;;;;5.72;3.95;;;10.10;94.70;;;;;;5089930;28;20497;-60
2021/12/21 00:34:07;;;;;;;9.45;3.95;;;10.00;94.70;;;;;;5083414;28;20040;-61
2021/12/21 00:36:35;;;;;;;6.47;5.07;;;10.00;94.60;;;;;;5080737;28;20043;-62
2021/12/21 00:39:07;;;;;;;10.95;4.78;;;10.00;94.50;;;;;;5102485;28;20048;-61
2021/12/21 00:41:35;;;;;;;5.60;4.10;;;10.00;94.60;;;;;;5100924;28;20042;-61
2021/12/21 00:44:03;;;;;;;8.93;4.85;;;10.10;94.60;;;;;;5085527;28;20513;-61
2021/12/21 00:46:31;;;;;;;7.95;4.00;;;10.00;94.50;;;;;;5091330;28;20063;-63
2021/12/21 00:49:12;;;;;;;6.70;3.85;;;10.00;94.50;;;;;;5099334;28;20032;-61
2021/12/21 00:51:41;;;;;;;5.68;3.90;;;10.00;94.30;;;;;;5079187;28;20064;-61
2021/12/21 00:54:10;;;;;;;9.68;4.25;;;10.00;94.30;;;;;;5067292;28;20048;-61
2021/12/21 00:56:37;;;;;;;6.03;4.00;;;10.00;94.40;;;;;;5100035;28;20066;-61
2021/12/21 00:59:05;;;;;;;6.82;4.63;;;10.00;94.20;;;;;;5101982;28;20363;-60
2021/12/21 01:01:35;;;;;;;7.45;4.40;;;10.00;94.30;;;;;;5088473;28;20045;-61
2021/12/21 01:04:07;;;;;;;6.18;4.20;;;10.00;94.30;;;;;;5098023;28;20119;-60
2021/12/21 01:11:49;;;;;;;7.15;3.85;;;9.90;93.90;;;;;;5091431;28;20444;-60
2021/12/21 01:15:01;;;;;;;7.78;3.13;;;9.90;93.70;;;;;;5103704;28;20044;-61
2021/12/21 01:17:32;;;;;;;5.28;2.88;;;9.90;93.70;;;;;;5105371;28;20501;-61
2021/12/21 01:20:14;;;;;;;7.55;3.75;;;9.90;93.80;;;;;;5102280;28;20414;-62
2021/12/21 01:31:03;;;;;;;4.32;2.47;;;9.80;94.20;;;;;;5096075;28;20036;-60
2021/12/21 01:36:57;;;;;;;5.70;3.03;;;9.80;94.10;;;;;;5034350;28;20494;-60
2021/12/21 01:39:53;;;;;;;9.32;4.32;;;9.70;94.10;;;;;;5083916;28;20494;-60
2021/12/21 01:43:09;;;;;;;5.32;3.53;;;9.70;94.10;;;;;;5077022;28;20166;-61
2021/12/21 01:50:38;;;;;;;5.35;3.63;;;9.60;94.30;;;;;;5098764;28;20043;-61
2021/12/21 01:53:05;;;;;;;5.97;3.67;;;9.50;94.30;;;;;;5101923;28;20040;-61
2021/12/21 01:55:33;;;;;;;7.22;4.00;;;9.50;94.30;;;;;;5085888;28;20041;-60
2021/12/21 01:58:01;;;;;;;8.48;3.75;;;9.40;94.30;;;;;;5097888;28;20134;-60
2021/12/21 02:00:29;;;;;;;3.97;3.20;;;9.40;94.30;;;;;;5082320;28;20064;-60
2021/12/21 02:02:57;;;;;;;5.47;3.40;;;9.40;94.40;;;;;;5102693;28;20506;-61
2021/12/21 02:05:24;;;;;;;6.65;3.53;;;9.40;94.50;;;;;;5057581;28;20047;-61
2021/12/21 02:07:52;;;;;;;6.88;3.10;;;9.30;94.50;;;;;;5105982;28;20035;-61
2021/12/21 02:10:20;;;;;;;4.60;3.42;;;9.30;94.40;;;;;;5068956;28;20502;-60
2021/12/21 02:12:49;;;;;;;4.65;2.80;;;9.30;94.60;;;;;;5096829;28;20393;-61
2021/12/21 02:15:17;;;;;;;4.07;2.90;;;9.20;94.60;;;;;;5097397;28;20036;-61
2021/12/21 02:23:21;;;;;;;7.20;3.25;;;9.10;94.60;;;;;;5098953;28;20383;-61
2021/12/21 02:26:05;;;;;;;6.18;3.22;;;9.10;94.60;;;;;;5099205;28;20573;-60
2021/12/21 02:28:47;;;;;;;5.20;2.40;;;9.00;94.60;;;;;;5093129;28;20122;-61
2021/12/21 02:31:17;;;;;;;6.22;3.28;;;9.00;94.40;;;;;;5099538;28;20035;-61
2021/12/21 02:33:47;;;;;;;6.95;3.28;;;9.00;94.30;;;;;;5091909;28;20474;-61
2021/12/21 02:36:15;;;;;;;3.78;2.28;;;9.00;94.30;;;;;;5080352;28;20521;-60
2021/12/21 02:38:42;;;;;;;5.70;3.00;;;8.90;94.20;;;;;;5103149;28;20059;-60
2021/12/21 02:41:10;;;;;;;5.90;3.25;;;8.90;94.10;;;;;;5083452;28;20036;-62
2021/12/21 02:43:38;;;;;;;9.20;4.50;;;8.90;94.10;;;;;;5089235;28;20076;-60
2021/12/21 02:46:07;;;;;;;5.45;3.92;;;8.90;94.10;;;;;;5095398;28;20119;-62
2021/12/21 02:48:34;;;;;;;7.38;3.85;;;8.90;94.10;;;;;;5107260;28;20078;-61
2021/12/21 02:51:02;;;;;;;7.30;4.22;;;8.90;94.20;;;;;;5108867;28;20048;-63
2021/12/21 02:53:30;;;;;;;5.50;3.63;;;8.90;94.20;;;;;;5102653;28;20032;-62
2021/12/21 02:55:57;;;;;;;7.60;4.10;;;8.80;94.20;;;;;;5104748;28;20036;-61
2021/12/21 02:58:25;;;;;;;10.30;4.20;;;8.80;94.00;;;;;;5100157;28;20036;-63
2021/12/21 03:00:54;;;;;;;6.85;4.00;;;8.70;93.80;;;;;;5104884;28;20036;-60
2021/12/21 03:03:21;;;;;;;6.07;3.50;;;8.80;93.80;;;;;;5091982;28;20067;-60
2021/12/21 03:05:53;;;;;;;6.20;3.67;;;8.70;93.70;;;;;;5075503;28;20052;-60
2021/12/21 03:08:24;;;;;;;7.18;3.50;;;8.70;93.60;;;;;;5075519;28;20097;-60
2021/12/21 03:11:04;;;;;;;4.97;2.95;;;8.70;93.50;;;;;;5075602;28;20044;-60
2021/12/21 03:16:18;;;;;;;7.00;4.07;;;8.70;93.30;;;;;;5075179;28;20094;-61
2021/12/21 03:18:46;;;;;;;8.43;3.35;;;8.70;93.20;;;;;;5101597;28;20047;-61
2021/12/21 03:21:14;;;;;;;5.55;2.92;;;8.70;93.10;;;;;;5115591;28;20071;-60
2021/12/21 03:23:42;;;;;;;7.03;3.40;;;8.70;93.10;;;;;;5099640;28;20046;-60
2021/12/21 03:26:10;;;;;;;7.53;4.05;;;8.70;93.10;;;;;;5116300;28;20073;-61
2021/12/21 03:28:37;;;;;;;8.20;3.60;;;8.70;93.00;;;;;;5116422;28;20055;-60
2021/12/21 03:31:06;;;;;;;8.07;2.97;;;8.70;93.10;;;;;;5117522;28;20042;-60
2021/12/21 03:33:34;;;;;;;4.75;3.20;;;8.60;93.30;;;;;;5116177;28;20136;-60
2021/12/21 03:36:03;;;;;;;6.25;2.55;;;8.60;93.40;;;;;;5099348;28;20035;-60
2021/12/21 03:38:32;;;;;;;4.50;2.30;;;8.60;93.30;;;;;;5082313;28;20497;-60
2021/12/21 03:41:06;;;;;;;2.80;1.92;;;8.60;93.20;;;;;;5116049;28;20420;-60
2021/12/21 03:43:34;;;;;;;4.85;2.47;;;8.60;93.20;;;;;;5116029;28;20040;-60
2021/12/21 03:46:13;;;;;;;2.67;2.00;;;8.60;93.00;;;;;;5099139;28;20054;-61
2021/12/21 03:48:45;;;;;;;9.25;3.50;;;8.60;93.00;;;;;;5098519;28;20104;-60
2021/12/21 03:51:15;;;;;;;6.10;2.30;;;8.60;93.00;;;;;;5117095;28;20036;-60
2021/12/21 03:53:43;;;;;;;4.38;2.88;;;8.60;93.00;;;;;;5099324;28;20142;-60
2021/12/21 03:58:42;;;;;;;4.88;1.95;;;8.70;93.00;;;;;;5098844;28;20054;-60
2021/12/21 04:01:09;;;;;;;3.90;2.05;;;8.60;92.90;;;;;;5098845;28;20445;-60
2021/12/21 04:03:37;;;;;;;4.97;2.30;;;8.60;93.00;;;;;;5082023;28;20582;-60
2021/12/21 04:06:06;;;;;;;3.05;2.38;;;8.60;93.00;;;;;;5082201;28;20065;-60
2021/12/21 04:08:34;;;;;;;8.20;3.03;;;8.60;93.10;;;;;;5115890;28;20189;-60
2021/12/21 04:11:03;;;;;;;4.43;2.10;;;8.60;93.10;;;;;;5081916;28;20035;-61
2021/12/21 04:13:31;;;;;;;3.40;1.95;;;8.60;93.20;;;;;;5098849;28;20032;-60
2021/12/21 04:16:01;;;;;;;7.15;2.38;;;8.60;93.20;;;;;;5115667;28;20492;-60
2021/12/21 04:18:29;;;;;;;4.38;2.30;;;8.60;93.20;;;;;;5082013;28;20057;-60
2021/12/21 04:20:57;;;;;;;3.50;2.08;;;8.50;93.20;;;;;;5098570;28;20039;-60
2021/12/21 04:23:24;;;;;;;6.30;2.83;;;8.50;93.20;;;;;;5116426;28;20397;-60
2021/12/21 04:25:52;;;;;;;4.97;1.98;;;8.50;93.20;;;;;;5116366;28;20071;-60
2021/12/21 04:28:19;;;;;;;3.10;1.98;;;8.50;93.10;;;;;;5098522;28;20051;-61
2021/12/21 04:30:47;;;;;;;5.95;2.53;;;8.50;93.10;;;;;;5115062;28;20047;-61
2021/12/21 04:33:14;;;;;;;7.25;4.03;;;8.50;93.10;;;;;;5081395;28;20047;-61
2021/12/21 04:35:42;;;;;;;5.97;2.40;;;8.50;93.10;;;;;;5098319;28;20090;-60
2021/12/21 04:38:23;;;;;;;3.35;2.03;;;8.40;93.20;;;;;;5114908;28;20048;-61
2021/12/21 04:40:58;;;;;;;4.05;2.50;;;8.40;93.20;;;;;;5116375;28;20074;-60
2021/12/21 04:43:26;;;;;;;4.32;2.38;;;8.40;93.20;;;;;;5116233;28;20038;-60
2021/12/21 04:45:53;;;;;;;5.20;2.60;;;8.40;93.20;;;;;;5098073;28;20078;-60
2021/12/21 04:48:21;;;;;;;5.28;2.28;;;8.40;93.30;;;;;;5114870;28;20074;-60
2021/12/21 04:50:49;;;;;;;4.38;2.67;;;8.30;93.20;;;;;;5115838;28;20044;-60
2021/12/21 04:53:16;;;;;;;5.38;3.28;;;8.30;93.30;;;;;;5114610;28;20044;-60
2021/12/21 04:55:44;;;;;;;3.97;1.95;;;8.20;93.40;;;;;;5114969;28;20067;-60
2021/12/21 04:58:12;;;;;;;3.75;2.28;;;8.30;93.40;;;;;;5097788;28;20035;-61
2021/12/21 05:00:40;;;;;;;5.05;3.33;;;8.20;93.50;;;;;;5114698;28;20044;-60
2021/12/21 05:03:08;;;;;;;6.13;3.30;;;8.20;93.30;;;;;;5097741;28;20074;-60
2021/12/21 05:05:36;;;;;;;5.82;2.72;;;8.20;93.30;;;;;;5114434;28;20371;-61
2021/12/21 05:08:09;;;;;;;5.18;2.30;;;8.20;93.40;;;;;;5096592;28;20575;-60
2021/12/21 05:10:48;;;;;;;4.18;2.20;;;8.10;93.30;;;;;;5115740;28;20054;-60
2021/12/21 05:13:17;;;;;;;4.20;2.50;;;8.10;93.40;;;;;;5115454;28;20050;-61
2021/12/21 05:15:45;;;;;;;4.57;2.55;;;8.00;93.50;;;;;;5114220;28;20481;-60
2021/12/21 05:18:14;;;;;;;4.43;2.10;;;8.00;93.50;;;;;;5114060;28;20054;-61
2021/12/21 05:20:42;;;;;;;6.57;3.00;;;8.00;93.40;;;;;;5114213;28;20054;-60
2021/12/21 05:23:11;;;;;;;7.35;2.35;;;8.00;93.70;;;;;;5097045;28;20463;-61
2021/12/21 05:25:39;;;;;;;10.20;2.90;;;8.00;93.60;;;;;;5097187;28;20039;-60
2021/12/21 05:28:09;;;;;;;5.38;2.88;;;7.90;93.50;;;;;;5097570;28;20075;-60
2021/12/21 05:30:38;;;;;;;5.90;2.92;;;7.90;93.50;;;;;;5097403;28;20116;-60
2021/12/21 05:33:06;;;;;;;4.82;2.55;;;7.90;93.40;;;;;;5115065;28;20047;-60
2021/12/21 05:35:35;;;;;;;5.80;2.72;;;7.80;93.50;;;;;;5080426;28;20047;-60
2021/12/21 05:38:06;;;;;;;7.97;3.28;;;7.90;93.80;;;;;;5114777;28;20076;-60
2021/12/21 05:40:41;;;;;;;3.75;2.60;;;7.80;93.50;;;;;;5080340;28;20051;-60
2021/12/21 05:43:10;;;;;;;5.55;2.83;;;7.80;93.50;;;;;;5114232;28;20055;-60
2021/12/21 05:45:39;;;;;;;11.52;3.25;;;7.80;93.60;;;;;;5096557;28;20048;-60
2021/12/21 05:48:07;;;;;;;5.47;2.67;;;7.80;93.60;;;;;;5113822;28;20040;-60
2021/12/21 05:50:36;;;;;;;13.95;6.68;;;7.80;93.60;;;;;;5113389;28;20116;-62
2021/12/21 05:53:04;;;;;;;8.65;5.82;;;7.70;93.60;;;;;;5096179;28;20079;-60
2021/12/21 05:55:32;;;;;;;7.88;3.25;;;7.70;93.40;;;;;;5113465;28;20135;-60
2021/12/21 05:58:00;;;;;;;6.75;3.05;;;7.80;93.30;;;;;;5096695;28;20047;-60
2021/12/21 06:00:31;;;;;;;8.15;4.88;;;7.80;93.30;;;;;;5096506;28;20046;-60
2021/12/21 06:02:59;;;;;;;11.75;6.95;;;7.80;93.10;;;;;;5113694;28;20366;-60
2021/12/21 06:05:27;;;;;;;15.85;8.82;;;7.80;93.10;;;;;;5114605;28;20085;-60
2021/12/21 06:07:55;;;;;;;11.52;6.47;;;7.80;93.10;;;;;;5113303;28;20128;-60
2021/12/21 06:10:31;;;;;;;8.13;3.67;;;7.80;93.10;;;;;;5113183;28;20048;-60
2021/12/21 06:26:40;;;;;;;5.07;2.42;;;8.40;92.80;;;;;;5113130;28;20085;-59
2021/12/21 06:29:08;;;;;;;5.32;3.00;;;9.00;92.00;;;;;;5079561;28;20051;-60
2021/12/21 06:31:36;;;;;;;4.25;3.22;;;9.60;91.20;;;;;;5095690;28;20039;-61
2021/12/21 06:34:04;;;;;;;5.50;2.85;;;10.20;90.40;;;;;;5112403;28;20057;-60
2021/12/21 06:36:32;;;;;;;4.20;2.40;;;10.90;89.00;;;;;;5079049;28;20521;-60
2021/12/21 06:39:00;;;;;;;5.20;2.65;;;11.50;87.40;;;;;;5112962;28;20051;-60
2021/12/21 06:41:28;;;;;;;5.25;2.67;;;12.10;86.00;;;;;;5079345;28;20058;-60
2021/12/21 06:43:56;;;;;;;3.47;2.70;;;12.80;84.40;;;;;;5112543;28;20394;-60
2021/12/21 06:51:58;;;;;;;7.88;4.93;;;14.70;79.80;;;;;;5096349;28;20058;-60
2021/12/21 06:54:26;;;;;;;7.05;4.50;;;15.30;78.40;;;;;;5097398;28;20097;-60
2021/12/21 06:56:54;;;;;;;8.00;3.85;;;15.70;77.20;;;;;;5117901;28;20427;-60
2021/12/21 06:59:22;;;;;;;6.90;4.45;;;16.30;76.00;;;;;;5100199;28;20035;-60
2021/12/21 07:01:50;;;;;;;6.35;3.72;;;16.90;74.90;;;;;;5117011;28;20040;-60
2021/12/21 07:04:18;;;;;;;8.52;4.50;;;17.40;73.40;;;;;;5117055;28;20497;-60
2021/12/21 07:06:46;;;;;;;10.27;5.38;;;18.00;72.20;;;;;;5116784;28;20046;-60
2021/12/21 07:09:32;;;;;;;11.82;5.85;;;18.50;71.00;;;;;;5083001;28;20143;-60
2021/12/21 07:20:12;;;;;;;8.52;5.15;;;20.20;67.30;;;;;;5094320;28;20068;-61
2021/12/21 07:22:40;;;;;;;7.97;3.83;;;20.70;66.30;;;;;;5101653;28;20051;-61
2021/12/21 07:25:07;;;;;;;6.13;4.70;;;21.20;65.40;;;;;;5100334;28;20067;-61
2021/12/21 07:27:35;;;;;;;10.73;4.68;;;21.60;64.50;;;;;;5098504;28;20049;-61
2021/12/21 07:30:05;;;;;;;8.57;5.05;;;22.00;63.70;;;;;;5058583;28;20083;-61
2021/12/21 07:32:34;;;;;;;9.45;4.53;;;22.40;63.10;;;;;;5076629;28;20040;-60
2021/12/21 07:35:01;;;;;;;6.45;2.78;;;22.80;62.20;;;;;;5059156;28;20041;-60
2021/12/21 07:37:29;;;;;;;4.38;2.03;;;23.00;61.10;;;;;;5058690;28;20052;-61
2021/12/21 07:39:57;;;;;;;4.35;2.00;;;23.10;60.20;;;;;;5058929;28;20441;-61
2021/12/21 07:42:25;;;;;;;3.88;2.20;;;23.20;59.90;;;;;;5075218;28;20041;-58
2021/12/21 07:44:52;;;;;;;6.40;2.05;;;23.10;59.60;;;;;;5058654;28;20139;-59
2021/12/21 07:47:20;;;;;;;4.07;1.60;;;23.10;59.60;;;;;;5075008;28;20051;-58
2021/12/21 07:49:48;;;;;;;4.43;2.50;;;23.00;59.60;;;;;;5075227;28;20040;-58
2021/12/21 07:52:17;;;;;;;2.70;2.38;;;22.70;59.50;;;;;;4844363;28;20453;-60
2021/12/21 07:54:45;;;;;;;5.60;1.95;;;22.40;59.60;;;;;;4660575;28;20048;-60
2021/12/21 07:57:13;;;;;;;4.63;2.45;;;22.00;60.30;;;;;;5068289;28;20070;-59
2021/12/21 07:59:41;;;;;;;6.65;1.77;;;21.60;60.30;;;;;;5067982;28;20039;-61
2021/12/21 08:02:15;;;;;;;6.03;2.90;;;21.20;60.90;;;;;;5067560;28;20044;-62
2021/12/21 08:04:43;;;;;;;4.22;1.77;;;20.80;61.00;;;;;;5057218;28;20145;-59
2021/12/21 08:07:16;;;;;;;5.10;2.17;;;20.40;61.60;;;;;;5073962;28;20041;-60
2021/12/21 08:09:48;;;;;;;3.58;2.22;;;20.20;61.60;;;;;;5058177;28;20554;-60
2021/12/21 08:12:17;;;;;;;4.65;2.38;;;20.00;61.60;;;;;;5074374;28;20044;-60
2021/12/21 08:14:51;;;;;;;4.57;2.35;;;19.70;61.60;;;;;;5075907;28;20094;-61
2021/12/21 08:17:19;;;;;;;5.30;3.00;;;19.60;62.10;;;;;;5075814;28;20379;-61
2021/12/21 08:19:48;;;;;;;3.83;2.70;;;19.40;62.60;;;;;;5074601;28;20044;-60
2021/12/21 08:22:16;;;;;;;7.10;3.38;;;19.20;63.30;;;;;;5057739;28;20134;-61
2021/12/21 08:24:45;;;;;;;8.40;3.33;;;19.10;63.80;;;;;;5041408;28;20052;-61
2021/12/21 08:27:14;;;;;;;12.43;3.15;;;18.90;64.20;;;;;;5074341;28;20048;-60
2021/12/21 08:29:41;;;;;;;5.47;2.50;;;18.70;64.50;;;;;;5058044;28;20083;-60
2021/12/21 08:32:09;;;;;;;5.07;2.42;;;18.40;65.30;;;;;;5075307;28;20040;-62
2021/12/21 08:34:38;;;;;;;5.70;3.05;;;18.10;65.80;;;;;;5075762;28;20086;-60
2021/12/21 08:37:06;;;;;;;4.18;2.60;;;17.80;66.80;;;;;;5051309;28;20052;-60
2021/12/21 08:39:38;;;;;;;7.25;3.03;;;17.50;67.50;;;;;;5072440;28;20055;-59
2021/12/21 08:42:08;;;;;;;4.47;3.38;;;17.20;67.80;;;;;;5090538;28;20043;-59
2021/12/21 08:44:36;;;;;;;10.73;3.47;;;16.90;68.20;;;;;;5075341;28;20109;-59
2021/12/21 08:47:04;;;;;;;7.70;3.72;;;16.60;68.80;;;;;;5090742;28;20044;-59
2021/12/21 08:49:32;;;;;;;7.20;3.60;;;16.40;69.60;;;;;;5081815;28;20085;-60
2021/12/21 08:52:00;;;;;;;5.20;3.58;;;16.20;70.40;;;;;;5092488;28;20097;-60
2021/12/21 08:54:28;;;;;;;7.03;2.83;;;16.00;70.70;;;;;;5059802;28;20074;-59
2021/12/21 08:56:55;;;;;;;5.10;1.90;;;16.00;70.10;;;;;;5094620;28;20455;-61
2021/12/21 08:59:23;;;;;;;4.18;1.45;;;15.80;68.70;;;;;;5093432;28;20055;-62
2021/12/21 09:01:53;;;;;;;1.60;1.13;;;15.60;66.60;;;;;;5092380;28;20047;-60
2021/12/21 09:04:22;;;;;;;3.45;1.25;;;15.30;66.10;;;;;;5075175;28;20056;-60
2021/12/21 09:06:49;;;;;;;5.47;1.13;;;15.00;66.90;;;;;;5094047;28;20048;-59
2021/12/21 09:09:18;;;;;;;3.17;1.17;;;14.90;67.00;;;;;;5093876;28;20047;-60
2021/12/21 09:11:46;;;;;;;1.60;0.88;;;14.70;66.60;;;;;;5095153;28;20486;-60
2021/12/21 09:14:13;;;;;;;2.35;1.10;;;14.70;66.00;;;;;;5093862;28;20054;-60
2021/12/21 09:16:41;;;;;;;1.85;1.20;;;14.70;66.40;;;;;;5093594;28;20122;-60
2021/12/21 09:19:08;;;;;;;4.22;1.48;;;14.80;66.10;;;;;;5093111;28;20468;-60
2021/12/21 09:21:37;;;;;;;2.88;1.20;;;14.80;66.10;;;;;;5095076;28;20040;-60
2021/12/21 09:24:05;;;;;;;1.92;0.93;;;14.90;65.80;;;;;;5076974;28;20060;-60
2021/12/21 09:26:33;;;;;;;2.42;1.40;;;14.90;65.40;;;;;;5060557;28;20440;-60
2021/12/21 09:29:00;;;;;;;1.63;0.95;;;14.60;65.00;;;;;;5093589;28;20036;-59
2021/12/21 09:31:28;;;;;;;1.42;0.90;;;14.80;66.10;;;;;;5094639;28;20401;-60
2021/12/21 09:33:56;;;;;;;3.38;1.77;;;14.80;66.50;;;;;;5060164;28;20044;-60
2021/12/21 09:36:25;;;;;;;1.52;1.10;;;14.70;65.30;;;;;;5094402;28;20078;-60
2021/12/21 09:38:54;;;;;;;4.72;1.50;;;14.70;64.90;;;;;;5093310;28;20048;-60
2021/12/21 09:41:23;;;;;;;4.60;1.50;;;14.60;65.50;;;;;;5093371;28;20047;-59
2021/12/21 09:43:50;;;;;;;3.33;1.25;;;14.60;66.10;;;;;;5059940;28;20138;-60
2021/12/21 09:46:18;;;;;;;1.23;0.80;;;14.70;66.40;;;;;;5094441;28;20093;-60
2021/12/21 09:48:45;;;;;;;1.35;1.10;;;14.60;65.70;;;;;;5076830;28;20747;-60
2021/12/21 09:51:13;;;;;;;2.53;1.35;;;14.70;66.00;;;;;;5094779;28;20043;-60
2021/12/21 09:53:43;;;;;;;1.17;0.90;;;14.80;66.60;;;;;;5093044;28;20588;-60
2021/12/21 09:56:10;;;;;;;2.42;1.08;;;14.80;65.20;;;;;;5076512;28;20405;-60
2021/12/21 09:58:38;;;;;;;3.47;1.02;;;14.80;65.40;;;;;;5059823;28;20494;-60
2021/12/21 10:01:06;;;;;;;2.67;1.33;;;14.90;65.30;;;;;;5093229;28;20406;-60
2021/12/21 10:03:34;;;;;;;1.48;1.00;;;14.90;65.50;;;;;;5076241;28;20394;-59
2021/12/21 10:06:10;;;;;;;1.30;0.85;;;14.90;65.30;;;;;;5076332;28;20048;-59
2021/12/21 10:08:39;;;;;;;2.40;1.13;;;14.80;64.90;;;;;;5094206;28;20051;-60
2021/12/21 10:11:16;;;;;;;1.70;1.10;;;14.80;65.00;;;;;;5092632;28;20048;-59
2021/12/21 10:13:43;;;;;;;1.92;1.23;;;14.80;64.50;;;;;;5075976;28;20471;-59
2021/12/21 10:16:11;;;;;;;1.67;0.90;;;14.80;64.30;;;;;;5092938;28;20054;-60
2021/12/21 10:18:43;;;;;;;1.83;1.02;;;14.80;63.80;;;;;;5076139;28;20551;-59
2021/12/21 10:21:14;;;;;;;2.00;0.98;;;14.90;63.90;;;;;;5094016;28;20109;-60
2021/12/21 10:23:48;;;;;;;2.55;1.33;;;14.90;64.70;;;;;;5059415;28;20078;-59
2021/12/21 10:26:23;;;;;;;2.80;1.50;;;15.00;64.60;;;;;;5075708;28;20044;-59
2021/12/21 10:28:56;;;;;;;4.43;1.52;;;14.90;65.00;;;;;;5093980;28;20048;-60
2021/12/21 10:31:36;;;;;;;1.50;0.90;;;14.80;64.00;;;;;;5075921;28;20040;-59
2021/12/21 10:34:09;;;;;;;3.33;1.10;;;14.80;63.90;;;;;;5075898;28;20040;-60
2021/12/21 10:36:47;;;;;;;2.33;1.20;;;14.80;64.70;;;;;;5075513;28;20048;-60
2021/12/21 10:39:24;;;;;;;2.08;0.85;;;14.80;64.70;;;;;;5075518;28;20090;-60
2021/12/21 10:41:55;;;;;;;;;;;14.80;65.10;;;;;;5093137;28;20059;-59
2021/12/21 10:44:24;;;;;;;2.72;1.10;;;14.90;66.80;;;;;;5092313;28;19920;-60
2021/12/21 10:46:54;;;;;;;1.75;0.90;;;14.90;65.10;;;;;;5093512;28;20132;-59
2021/12/21 10:49:40;;;;;;;3.30;1.30;;;15.00;65.10;;;;;;5092214;28;20044;-60
2021/12/21 10:52:14;;;;;;;4.28;0.93;;;15.00;66.70;;;;;;5075968;28;20055;-59
2021/12/21 10:54:47;;;;;;;1.27;1.10;;;15.10;64.50;;;;;;5092297;28;20036;-61
2021/12/21 10:57:21;;;;;;;3.10;1.20;;;15.10;63.70;;;;;;5093554;28;20040;-60
2021/12/21 10:59:53;;;;;;;2.42;1.30;;;15.00;64.10;;;;;;5092308;28;20048;-60
2021/12/21 11:02:26;;;;;;;2.65;1.58;;;15.00;65.00;;;;;;5058955;28;20153;-60
2021/12/21 11:05:01;;;;;;;2.33;1.15;;;15.00;65.10;;;;;;5075676;28;20048;-60
2021/12/21 11:10:14;;;;;;;1.38;1.00;;;15.00;64.90;;;;;;5093370;28;20064;-60
2021/12/21 11:13:05;;;;;;;2.40;1.38;;;15.00;65.00;;;;;;5093608;28;20035;-60
2021/12/21 11:15:47;;;;;;;1.70;1.15;;;15.00;64.00;;;;;;5092401;28;20437;-59
2021/12/21 11:18:18;;;;;;;2.28;1.33;;;14.90;64.40;;;;;;5092294;28;20036;-59
2021/12/21 11:20:50;;;;;;;1.98;0.90;;;14.70;64.40;;;;;;5075520;28;20039;-60
2021/12/21 11:23:22;;;;;;;2.40;1.33;;;14.70;65.20;;;;;;5092222;28;20138;-59
2021/12/21 11:25:54;;;;;;;3.08;1.55;;;14.70;65.00;;;;;;5075462;28;20044;-59
2021/12/21 11:28:27;;;;;;;2.13;1.05;;;14.60;64.90;;;;;;5093447;28;20032;-59
2021/12/21 11:31:00;;;;;;;3.65;1.08;;;14.60;64.40;;;;;;5059030;28;20075;-59
2021/12/21 11:33:34;;;;;;;2.28;1.35;;;14.20;62.60;;;;;;5093260;28;20402;-59
2021/12/21 11:38:49;;;;;;;;;;;14.30;63.90;;;;;;5093566;28;20052;-60
2021/12/21 11:41:17;;;;;;;2.38;1.02;;;14.40;63.50;;;;;;5076449;28;19919;-60
2021/12/21 11:43:58;;;;;;;2.38;1.20;;;14.50;64.00;;;;;;5095611;28;20127;-59
2021/12/21 11:46:39;;;;;;;5.03;1.35;;;14.50;64.80;;;;;;5078954;28;20056;-59
2021/12/21 11:49:16;;;;;;;1.45;1.10;;;14.60;64.70;;;;;;5097035;28;20386;-59
2021/12/21 11:51:44;;;;;;;2.97;1.80;;;14.50;65.80;;;;;;5062593;28;20052;-59
2021/12/21 11:54:22;;;;;;;5.60;3.28;;;14.50;65.40;;;;;;5078756;28;20488;-60
2021/12/21 11:57:00;;;;;;;5.38;2.63;;;14.50;64.60;;;;;;5078986;28;20048;-60
2021/12/21 11:59:28;;;;;;;7.82;4.03;;;14.50;64.10;;;;;;5095647;28;20135;-60
2021/12/21 12:02:01;;;;;;;4.63;2.50;;;14.30;64.10;;;;;;5096607;28;20047;-59
2021/12/21 12:04:28;;;;;;;3.05;1.67;;;14.20;64.60;;;;;;5078526;28;20028;-60
2021/12/21 12:06:59;;;;;;;6.90;1.75;;;14.30;65.30;;;;;;5096397;28;20555;-59
2021/12/21 12:09:32;;;;;;;2.85;1.58;;;14.20;66.40;;;;;;5095363;28;20040;-60
2021/12/21 12:12:11;;;;;;;4.78;1.73;;;14.20;66.70;;;;;;5095639;28;20500;-59
2021/12/21 12:14:45;;;;;;;4.85;2.30;;;14.10;66.10;;;;;;5078349;28;20085;-60
2021/12/21 12:17:22;;;;;;;2.30;1.50;;;14.00;66.60;;;;;;5095263;28;20048;-60
2021/12/21 12:19:57;;;;;;;2.95;1.70;;;14.00;66.40;;;;;;5061442;28;20055;-59
2021/12/21 12:22:43;;;;;;;4.88;3.50;;;13.90;68.00;;;;;;5095247;28;20406;-60
2021/12/21 12:25:19;;;;;;;4.28;3.45;;;13.80;67.40;;;;;;5096414;28;20043;-60
2021/12/21 12:27:51;;;;;;;11.55;6.78;;;13.70;67.30;;;;;;5095848;28;20064;-59
2021/12/21 12:30:28;;;;;;;5.32;3.28;;;13.70;68.20;;;;;;5095878;28;20067;-60
2021/12/21 12:33:00;;;;;;;3.90;1.70;;;13.70;67.60;;;;;;5077878;28;20502;-59
2021/12/21 12:35:30;;;;;;;3.80;2.63;;;13.80;68.00;;;;;;5077911;28;20058;-60
2021/12/21 12:38:15;;;;;;;6.07;4.05;;;13.80;67.90;;;;;;5094305;28;20052;-59
2021/12/21 12:40:47;;;;;;;5.00;3.53;;;13.80;68.00;;;;;;5058858;28;21034;-61
2021/12/21 12:43:24;;;;;;;10.02;4.28;;;13.70;67.30;;;;;;5103656;28;20210;-60
2021/12/21 12:46:05;;;;;;;3.38;2.47;;;13.70;67.00;;;;;;5100938;28;20048;-60
2021/12/21 12:48:40;;;;;;;6.15;3.72;;;13.70;66.40;;;;;;5067837;28;20044;-59
2021/12/21 12:51:09;;;;;;;4.13;2.88;;;13.70;67.70;;;;;;5098069;28;20037;-59
2021/12/21 12:53:45;;;;;;;3.50;1.40;;;13.60;67.70;;;;;;5111277;28;20397;-59
2021/12/21 12:56:15;;;;;;;5.43;2.57;;;13.50;68.30;;;;;;5103712;28;20047;-60
2021/12/21 12:59:00;;;;;;;16.15;9.93;;;13.50;68.90;;;;;;5095111;28;20135;-59
2021/12/21 13:01:38;;;;;;;4.85;2.58;;;13.40;68.70;;;;;;5077299;28;20047;-60
2021/12/21 13:04:10;;;;;;;5.10;3.42;;;13.40;68.30;;;;;;5094270;28;20036;-60
2021/12/21 13:06:41;;;;;;;8.00;4.95;;;13.40;68.50;;;;;;5095307;28;20512;-59
2021/12/21 13:09:13;;;;;;;6.70;3.95;;;13.40;67.80;;;;;;5094118;28;20050;-60
2021/12/21 13:11:41;;;;;;;10.77;4.30;;;13.30;67.10;;;;;;5077238;28;20094;-60
2021/12/21 13:14:10;;;;;;;10.57;5.43;;;13.30;67.30;;;;;;5077418;28;20130;-61
2021/12/21 13:16:40;;;;;;;7.63;4.22;;;13.20;67.60;;;;;;5077080;28;20044;-59
2021/12/21 13:19:13;;;;;;;9.45;4.57;;;13.20;68.00;;;;;;5093995;28;20047;-59
2021/12/21 13:21:58;;;;;;;10.55;4.90;;;13.20;67.70;;;;;;5060781;28;20135;-59
2021/12/21 13:24:36;;;;;;;8.68;4.10;;;13.00;67.60;;;;;;5077035;28;20094;-59
2021/12/21 13:27:12;;;;;;;6.55;3.95;;;13.00;68.00;;;;;;5095056;28;20044;-59
2021/12/21 13:29:42;;;;;;;;;;;13.00;68.60;;;;;;5095175;28;20093;-60
2021/12/21 13:32:14;;;;;;;4.07;2.75;;;13.00;69.10;;;;;;5093620;28;19924;-59
2021/12/21 13:34:45;;;;;;;4.45;2.45;;;12.80;68.10;;;;;;5093590;28;20036;-59
2021/12/21 13:37:18;;;;;;;10.38;3.95;;;12.80;68.40;;;;;;5093383;28;20055;-60
2021/12/21 13:39:56;;;;;;;6.82;2.00;;;12.80;69.10;;;;;;5093768;28;20036;-59
2021/12/21 13:42:27;;;;;;;4.43;1.75;;;12.70;69.40;;;;;;5094708;28;20044;-60
2021/12/21 13:45:01;;;;;;;4.35;2.00;;;12.70;69.70;;;;;;5076508;28;20102;-59
2021/12/21 13:47:34;;;;;;;4.38;2.03;;;12.70;69.10;;;;;;5059974;28;20130;-59
2021/12/21 13:50:08;;;;;;;4.72;2.78;;;12.70;69.00;;;;;;5076440;28;20047;-59
2021/12/21 13:52:45;;;;;;;5.55;3.05;;;12.60;70.50;;;;;;5093440;28;20044;-59
2021/12/21 13:55:24;;;;;;;4.30;3.50;;;12.60;73.60;;;;;;5092997;28;20102;-59
2021/12/21 13:57:54;;;;;;;6.30;3.00;;;12.60;72.70;;;;;;5076172;28;20052;-59
2021/12/21 14:00:28;;;;;;;5.57;3.35;;;12.40;73.30;;;;;;5093027;28;20044;-59
2021/12/21 14:03:15;;;;;;;4.88;3.17;;;12.40;73.10;;;;;;5094337;28;20040;-59
2021/12/21 14:05:45;;;;;;;;;;;12.40;73.50;;;;;;5094640;28;20406;-59
2021/12/21 14:08:16;;;;;;;7.18;3.53;;;12.30;74.10;;;;;;5076373;28;19965;-59
2021/12/21 14:10:50;;;;;;;5.07;3.20;;;12.30;74.80;;;;;;5092949;28;20047;-60
2021/12/21 14:13:30;;;;;;;3.15;1.80;;;12.10;75.10;;;;;;5076248;28;20071;-59
2021/12/21 14:16:05;;;;;;;3.85;2.17;;;12.00;75.30;;;;;;5092709;28;20055;-59
2021/12/21 14:18:39;;;;;;;5.78;3.15;;;12.00;75.80;;;;;;5092509;28;20389;-60
2021/12/21 14:21:10;;;;;;;5.55;2.80;;;11.80;75.80;;;;;;5059459;28;20438;-60
2021/12/21 14:23:43;;;;;;;4.05;2.45;;;11.80;75.60;;;;;;5059124;28;20043;-60
2021/12/21 14:26:18;;;;;;;6.57;3.03;;;11.70;75.30;;;;;;5059420;28;20078;-60